Time;durP1;ratioP1;P1;durP2;ratioP2;P2;SDS_P1;SDS_P2;PMS_P1;PMS_P2;Temp;Humidity;BMP_temperature;BMP_pressure;BME280_temperature;BME280_humidity;BME280_pressure;Samples;Min_cycle;Max_cycle;Signal;HPM_P1;HPM_P2
2022/01/19 00:00:57;;;;;;;9.38;8.32;;;2.90;99.90;;;;;;4995031;28;20252;-73
2022/01/19 00:03:24;;;;;;;8.80;7.85;;;2.90;99.90;;;;;;4995426;28;20026;-73
2022/01/19 00:05:49;;;;;;;9.73;8.07;;;2.80;99.90;;;;;;4995022;28;20053;-73
2022/01/19 00:08:19;;;;;;;11.65;8.75;;;2.80;99.90;;;;;;4994755;28;20027;-74
2022/01/19 00:10:45;;;;;;;16.98;9.77;;;2.80;99.90;;;;;;4994377;28;20025;-74
2022/01/19 00:13:10;;;;;;;8.93;7.95;;;2.80;99.90;;;;;;4994873;28;20086;-73
2022/01/19 00:15:36;;;;;;;9.77;7.93;;;2.80;99.90;;;;;;4994654;28;20065;-74
2022/01/19 00:18:02;;;;;;;11.20;8.20;;;2.80;99.90;;;;;;4994336;28;20030;-73
2022/01/19 00:20:33;;;;;;;12.05;8.57;;;2.80;99.90;;;;;;4994997;28;20026;-73
2022/01/19 00:22:59;;;;;;;;;;;2.80;99.90;;;;;;4998906;28;20375;-73
2022/01/19 00:25:25;;;;;;;10.43;8.40;;;2.70;99.90;;;;;;5025439;28;19910;-73
2022/01/19 00:27:51;;;;;;;13.82;9.02;;;2.70;99.90;;;;;;5013210;28;20034;-75
2022/01/19 00:30:17;;;;;;;9.23;8.30;;;2.70;99.90;;;;;;5014191;28;20042;-73
2022/01/19 00:32:43;;;;;;;12.85;8.63;;;2.60;99.90;;;;;;5011014;28;20034;-73
2022/01/19 00:35:09;;;;;;;11.75;8.38;;;2.60;99.90;;;;;;5006060;28;20537;-73
2022/01/19 00:37:39;;;;;;;16.05;9.27;;;2.50;99.90;;;;;;4995498;28;20030;-74
2022/01/19 00:40:06;;;;;;;12.57;8.60;;;2.50;99.90;;;;;;4995133;28;20132;-75
2022/01/19 00:42:34;;;;;;;8.43;7.35;;;2.50;99.90;;;;;;4994621;28;20121;-73
2022/01/19 00:45:00;;;;;;;11.68;7.88;;;2.50;99.90;;;;;;4994472;28;20286;-74
2022/01/19 00:47:25;;;;;;;8.95;8.02;;;2.40;99.90;;;;;;4994645;28;20521;-74
2022/01/19 00:49:51;;;;;;;9.85;7.85;;;2.40;99.90;;;;;;4994459;28;20022;-73
2022/01/19 00:52:16;;;;;;;12.43;8.45;;;2.30;99.90;;;;;;4993907;28;20034;-72
2022/01/19 00:54:42;;;;;;;12.40;8.43;;;2.20;99.90;;;;;;4994154;28;20085;-73
2022/01/19 00:57:08;;;;;;;14.93;9.60;;;2.20;99.90;;;;;;4992535;28;20445;-73
2022/01/19 00:59:34;;;;;;;9.82;8.07;;;2.30;99.90;;;;;;4992666;28;20028;-74
2022/01/19 01:02:01;;;;;;;13.27;8.68;;;2.30;99.90;;;;;;4993710;28;20113;-73
2022/01/19 01:04:27;;;;;;;9.30;7.82;;;2.30;99.90;;;;;;4993477;28;20026;-74
2022/01/19 01:06:53;;;;;;;10.95;8.82;;;2.20;99.90;;;;;;4993779;28;20070;-74
2022/01/19 01:09:18;;;;;;;9.55;8.52;;;2.20;99.90;;;;;;4992779;28;20033;-74
2022/01/19 01:11:58;;;;;;;11.20;7.95;;;2.10;99.90;;;;;;4994965;28;20057;-74
2022/01/19 01:17:13;;;;;;;12.13;9.18;;;2.10;99.90;;;;;;4996549;28;20033;-74
2022/01/19 01:19:38;;;;;;;11.45;8.70;;;2.00;99.90;;;;;;4994620;28;20023;-73
2022/01/19 01:22:04;;;;;;;12.25;9.05;;;2.00;99.90;;;;;;4995988;28;20026;-74
2022/01/19 01:24:30;;;;;;;11.27;8.73;;;2.00;99.90;;;;;;5002099;28;20027;-73
2022/01/19 01:26:55;;;;;;;9.93;8.68;;;1.90;99.90;;;;;;4994174;28;20045;-73
2022/01/19 01:29:22;;;;;;;8.77;7.68;;;1.90;99.90;;;;;;5001013;28;20086;-73
2022/01/19 01:31:48;;;;;;;20.65;10.60;;;1.90;99.90;;;;;;5041860;23;20041;-78
2022/01/19 01:34:14;;;;;;;14.95;8.50;;;1.80;99.90;;;;;;5023988;28;20024;-78
2022/01/19 01:36:39;;;;;;;12.93;8.90;;;1.80;99.90;;;;;;5031850;28;20026;-77
2022/01/19 01:39:05;;;;;;;13.98;9.73;;;1.80;99.90;;;;;;5015908;28;20022;-78
2022/01/19 01:41:31;;;;;;;13.40;8.85;;;1.70;99.90;;;;;;5013687;28;20026;-77
2022/01/19 01:43:56;;;;;;;13.23;8.75;;;1.70;99.90;;;;;;5013665;28;20083;-79
2022/01/19 01:46:42;;;;;;;11.48;9.95;;;1.70;99.90;;;;;;5014609;28;20072;-77
2022/01/19 01:49:14;;;;;;;12.90;10.27;;;1.70;99.90;;;;;;5014675;28;20022;-76
2022/01/19 01:54:24;;;;;;;17.65;9.55;;;1.70;99.90;;;;;;5015380;28;20033;-79
2022/01/19 01:56:52;;;;;;;12.38;8.73;;;1.70;99.90;;;;;;5012828;28;20026;-78
2022/01/19 01:59:18;;;;;;;15.05;9.23;;;1.70;99.90;;;;;;5029283;28;20025;-77
2022/01/19 02:01:44;;;;;;;11.45;9.68;;;1.70;99.90;;;;;;5030609;28;20021;-77
2022/01/19 02:04:10;;;;;;;14.70;9.43;;;1.60;99.90;;;;;;5017739;28;20027;-78
2022/01/19 02:07:21;;;;;;;10.27;8.57;;;1.60;99.90;;;;;;5034273;28;20030;-78
2022/01/19 02:09:25;;;;;;;12.05;9.23;;;1.50;99.90;;;;;;5021915;28;20453;-77
2022/01/19 02:23:16;;;;;;;;;;;1.40;99.90;;;;;;5029066;28;20090;-78
2022/01/19 02:25:44;;;;;;;11.80;9.15;;;1.40;99.90;;;;;;5019919;28;19952;-78
2022/01/19 02:41:41;;;;;;;12.77;9.98;;;1.50;99.90;;;;;;5024537;28;20040;-76
2022/01/19 02:44:14;;;;;;;12.35;9.98;;;1.60;99.90;;;;;;5025977;28;20018;-76
2022/01/19 02:49:09;;;;;;;16.42;9.60;;;1.60;99.90;;;;;;5021067;28;20394;-76
2022/01/19 02:49:37;;;;;;;16.02;9.98;;;1.70;99.90;;;;;;5030087;28;20079;-77
2022/01/19 02:52:03;;;;;;;15.50;10.48;;;1.80;99.90;;;;;;5019463;28;20116;-77
2022/01/19 02:54:29;;;;;;;15.50;11.25;;;1.60;99.90;;;;;;5020209;28;20113;-78
2022/01/19 02:56:59;;;;;;;18.52;12.23;;;1.50;99.90;;;;;;5016956;28;20378;-78
2022/01/19 03:10:06;;;;;;;16.88;11.70;;;1.10;99.90;;;;;;5029788;28;20057;-77
2022/01/19 03:12:31;;;;;;;16.45;11.38;;;1.10;99.90;;;;;;5020405;28;20029;-77
2022/01/19 03:14:57;;;;;;;19.95;12.38;;;1.30;99.90;;;;;;5021473;28;20026;-78
2022/01/19 03:17:23;;;;;;;18.23;13.15;;;1.50;99.90;;;;;;5016712;28;20106;-77
2022/01/19 03:19:49;;;;;;;19.50;14.07;;;1.70;99.90;;;;;;5017199;28;20018;-77
2022/01/19 03:22:17;;;;;;;21.17;15.38;;;1.80;99.90;;;;;;5016917;28;20022;-78
2022/01/19 03:24:49;;;;;;;38.60;20.80;;;1.80;99.90;;;;;;5015217;28;20065;-78
2022/01/19 03:27:15;;;;;;;20.95;14.55;;;1.70;99.90;;;;;;5017035;28;20048;-79
2022/01/19 03:29:41;;;;;;;19.67;12.70;;;1.60;99.90;;;;;;5017580;28;20470;-78
2022/01/19 03:32:08;;;;;;;22.88;13.35;;;1.50;99.90;;;;;;5039060;28;20069;-77
2022/01/19 03:34:33;;;;;;;22.95;13.13;;;1.50;99.90;;;;;;5015755;28;20486;-77
2022/01/19 03:36:59;;;;;;;20.00;12.75;;;1.50;99.90;;;;;;5016528;28;20030;-78
2022/01/19 03:39:24;;;;;;;18.23;12.40;;;1.50;99.90;;;;;;5015932;28;20034;-78
2022/01/19 03:41:50;;;;;;;16.63;11.98;;;1.30;99.90;;;;;;5017478;28;20026;-78
2022/01/19 03:44:16;;;;;;;21.70;12.23;;;1.10;99.90;;;;;;5020314;28;20049;-77
2022/01/19 03:47:04;;;;;;;17.63;12.95;;;1.00;99.90;;;;;;5024176;28;20455;-77
2022/01/19 03:49:32;;;;;;;15.80;11.30;;;0.90;99.90;;;;;;5022223;28;20052;-77
2022/01/19 03:52:02;;;;;;;13.68;12.15;;;0.80;99.90;;;;;;5023228;28;20025;-76
2022/01/19 03:54:29;;;;;;;20.98;12.45;;;0.70;99.90;;;;;;5023309;28;20033;-75
2022/01/19 03:56:55;;;;;;;21.17;11.98;;;0.70;99.90;;;;;;5026367;28;20105;-77
2022/01/19 03:59:22;;;;;;;20.45;14.02;;;0.60;99.90;;;;;;5029669;28;20191;-77
2022/01/19 04:01:52;;;;;;;16.15;12.55;;;0.50;99.90;;;;;;5022510;28;20033;-77
2022/01/19 04:06:58;;;;;;;25.95;12.30;;;0.50;99.90;;;;;;5024652;28;20471;-77
2022/01/19 04:09:25;;;;;;;19.08;12.68;;;0.50;99.90;;;;;;5022405;28;20038;-76
2022/01/19 04:11:51;;;;;;;20.05;12.73;;;0.60;99.90;;;;;;5021782;28;20049;-77
2022/01/19 04:14:27;;;;;;;22.15;13.70;;;0.60;99.90;;;;;;5021709;28;20034;-77
2022/01/19 04:17:12;;;;;;;21.58;12.43;;;0.60;99.90;;;;;;5020736;28;20029;-77
2022/01/19 04:19:44;;;;;;;22.25;13.32;;;0.60;99.90;;;;;;5019802;28;20360;-77
2022/01/19 04:22:13;;;;;;;18.42;12.02;;;0.50;99.90;;;;;;5024505;28;20029;-77
2022/01/19 04:24:40;;;;;;;25.05;15.23;;;0.50;99.90;;;;;;5034062;28;20018;-78
2022/01/19 04:30:08;;;;;;;22.08;14.32;;;0.50;99.90;;;;;;5035255;28;20044;-78
2022/01/19 04:32:48;;;;;;;22.42;13.60;;;0.40;99.90;;;;;;5029636;28;20018;-78
2022/01/19 04:35:20;;;;;;;22.00;12.37;;;0.50;99.90;;;;;;5033897;28;20068;-78
2022/01/19 05:02:59;;;;;;;20.65;13.98;;;0.30;99.90;;;;;;5024887;28;20034;-78
2022/01/19 05:05:27;;;;;;;17.90;11.80;;;0.30;99.90;;;;;;5016102;28;20018;-78
2022/01/19 05:08:10;;;;;;;15.35;12.35;;;0.20;99.90;;;;;;5016769;28;20033;-78
2022/01/19 05:15:49;;;;;;;17.38;11.63;;;0.40;99.90;;;;;;5025437;28;20064;-77
2022/01/19 05:18:16;;;;;;;15.40;11.77;;;0.40;99.90;;;;;;5024582;28;20034;-78
2022/01/19 05:20:42;;;;;;;22.92;12.00;;;0.40;99.90;;;;;;5025856;28;20022;-77
2022/01/19 05:23:07;;;;;;;16.65;13.38;;;0.50;99.90;;;;;;5017413;28;20461;-78
2022/01/19 05:25:33;;;;;;;24.25;13.73;;;0.70;99.90;;;;;;5034773;28;20037;-78
2022/01/19 05:27:58;;;;;;;18.30;12.75;;;0.70;99.90;;;;;;5029678;28;20037;-78
2022/01/19 05:30:24;;;;;;;20.92;13.63;;;0.70;99.90;;;;;;5016857;28;20425;-78
2022/01/19 05:32:50;;;;;;;24.10;14.10;;;0.50;99.90;;;;;;5017911;28;20093;-79
2022/01/19 05:35:15;;;;;;;17.45;14.27;;;0.40;99.90;;;;;;5015454;28;20030;-77
2022/01/19 05:37:41;;;;;;;19.52;14.45;;;0.30;99.90;;;;;;5013959;28;20026;-78
2022/01/19 05:40:09;;;;;;;28.65;15.10;;;0.30;99.90;;;;;;5015263;28;20022;-78
2022/01/19 05:42:35;;;;;;;18.02;14.38;;;0.30;99.90;;;;;;5014787;28;20076;-78
2022/01/19 05:45:01;;;;;;;24.35;15.75;;;0.20;99.90;;;;;;5013588;28;20428;-78
2022/01/19 05:47:26;;;;;;;26.10;14.95;;;0.10;99.90;;;;;;5029233;28;20417;-77
2022/01/19 05:49:52;;;;;;;23.80;14.82;;;0.10;99.90;;;;;;5017683;28;20026;-78
2022/01/19 05:52:19;;;;;;;21.05;14.95;;;0.20;99.90;;;;;;5018850;28;20022;-78
2022/01/19 05:54:45;;;;;;;20.15;14.25;;;0.20;99.90;;;;;;5018703;28;20025;-78
2022/01/19 05:57:11;;;;;;;46.33;23.70;;;0.20;99.90;;;;;;5017679;28;20025;-78
2022/01/19 05:59:37;;;;;;;25.63;16.15;;;0.10;99.90;;;;;;5020247;28;20045;-78
2022/01/19 06:02:03;;;;;;;22.42;15.13;;;0.10;99.90;;;;;;5027462;28;20048;-78
2022/01/19 06:04:29;;;;;;;24.15;15.95;;;0.10;99.90;;;;;;5018181;28;20030;-79
2022/01/19 06:06:56;;;;;;;24.35;15.25;;;0.10;99.90;;;;;;5017237;28;20033;-78
2022/01/19 06:12:05;;;;;;;27.10;15.77;;;0.00;99.90;;;;;;5017240;28;20037;-77
2022/01/19 06:14:32;;;;;;;24.70;15.80;;;-0.10;99.90;;;;;;5016869;28;20545;-78
2022/01/19 06:16:58;;;;;;;26.77;15.93;;;0.00;99.90;;;;;;5017434;28;20022;-78
2022/01/19 06:19:24;;;;;;;26.85;16.05;;;-0.10;99.90;;;;;;5018856;28;20076;-76
2022/01/19 06:21:50;;;;;;;28.30;17.35;;;-0.10;99.90;;;;;;5021226;28;20025;-76
2022/01/19 06:24:16;;;;;;;24.83;15.73;;;-0.10;99.90;;;;;;5022190;28;20104;-77
2022/01/19 06:26:41;;;;;;;17.77;14.55;;;-0.10;99.90;;;;;;5021380;28;20458;-77
2022/01/19 06:29:07;;;;;;;24.95;16.45;;;-0.10;99.90;;;;;;5022908;28;20033;-78
2022/01/19 06:31:32;;;;;;;31.30;18.15;;;-0.20;99.90;;;;;;5021850;28;20413;-78
2022/01/19 06:33:58;;;;;;;25.33;16.80;;;-0.10;99.90;;;;;;5022032;28;20026;-78
2022/01/19 06:36:24;;;;;;;32.65;17.73;;;-0.10;99.90;;;;;;5019390;28;20033;-78
2022/01/19 06:38:49;;;;;;;23.60;16.48;;;0.00;99.90;;;;;;5019133;28;20489;-77
2022/01/19 06:41:15;;;;;;;28.20;16.80;;;0.00;99.90;;;;;;5030600;28;20014;-79
2022/01/19 06:43:40;;;;;;;27.27;16.38;;;0.10;99.90;;;;;;5039406;28;20028;-78
2022/01/19 06:46:06;;;;;;;25.15;16.17;;;0.30;99.90;;;;;;5039063;28;20034;-78
2022/01/19 06:48:32;;;;;;;25.90;14.57;;;0.30;99.90;;;;;;5039545;28;20010;-78
2022/01/19 06:50:58;;;;;;;24.25;16.30;;;0.30;99.90;;;;;;5025303;28;20424;-78
2022/01/19 06:53:24;;;;;;;22.98;14.88;;;0.40;99.90;;;;;;5019649;28;20030;-77
2022/01/19 06:55:49;;;;;;;27.88;14.95;;;0.40;99.90;;;;;;5019702;28;20021;-78
2022/01/19 06:58:16;;;;;;;21.75;14.07;;;0.40;99.90;;;;;;5018755;28;20046;-77
2022/01/19 07:00:42;;;;;;;18.55;14.63;;;0.40;99.90;;;;;;5018822;28;20022;-78
2022/01/19 07:03:08;;;;;;;23.45;14.38;;;0.40;99.90;;;;;;5019705;28;20026;-78
2022/01/19 07:05:34;;;;;;;18.52;12.63;;;0.50;99.90;;;;;;5032142;28;20098;-80
2022/01/19 07:08:00;;;;;;;18.35;13.57;;;0.50;99.90;;;;;;5020571;28;20046;-78
2022/01/19 07:10:31;;;;;;;18.98;13.05;;;0.40;99.90;;;;;;5019143;28;20018;-78
2022/01/19 07:12:57;;;;;;;25.50;13.57;;;0.30;99.90;;;;;;5023856;28;20030;-77
2022/01/19 07:15:23;;;;;;;20.45;14.90;;;0.20;99.90;;;;;;5020039;28;20041;-78
2022/01/19 07:17:49;;;;;;;27.65;15.27;;;0.20;99.90;;;;;;5017026;28;20402;-78
2022/01/19 07:20:14;;;;;;;19.20;14.27;;;0.20;99.90;;;;;;5016861;28;20488;-79
2022/01/19 07:22:40;;;;;;;29.52;19.10;;;0.30;99.90;;;;;;5017187;28;20026;-79
2022/01/19 07:25:06;;;;;;;24.42;16.02;;;0.30;99.90;;;;;;5028353;28;20030;-78
2022/01/19 07:27:31;;;;;;;25.10;15.68;;;0.30;99.90;;;;;;5027678;28;20094;-77
2022/01/19 07:29:57;;;;;;;20.77;14.60;;;0.30;99.90;;;;;;5029101;28;20034;-78
2022/01/19 07:32:24;;;;;;;28.65;13.93;;;0.30;99.90;;;;;;5030512;28;20037;-78
2022/01/19 07:34:50;;;;;;;18.15;13.98;;;0.30;99.90;;;;;;5029522;28;20026;-78
2022/01/19 07:37:15;;;;;;;21.42;14.50;;;0.40;99.90;;;;;;5017509;28;20048;-78
2022/01/19 07:39:41;;;;;;;18.30;14.40;;;0.50;99.90;;;;;;5020121;28;20048;-78
2022/01/19 07:42:07;;;;;;;24.10;15.30;;;0.50;99.90;;;;;;5021323;28;20026;-77
2022/01/19 07:44:32;;;;;;;24.02;12.82;;;0.50;99.90;;;;;;5026981;28;20025;-78
2022/01/19 07:46:58;;;;;;;18.88;13.82;;;0.50;99.90;;;;;;5022657;28;20030;-78
2022/01/19 07:49:23;;;;;;;25.48;15.75;;;0.50;99.90;;;;;;5020564;28;20037;-77
2022/01/19 07:51:49;;;;;;;23.58;14.15;;;0.50;99.90;;;;;;5020207;28;20453;-78
2022/01/19 07:54:15;;;;;;;27.88;16.50;;;0.60;99.90;;;;;;5021440;28;20033;-77
2022/01/19 07:56:41;;;;;;;23.38;15.15;;;0.50;99.90;;;;;;5023418;28;20076;-78
2022/01/19 07:59:06;;;;;;;19.20;14.50;;;0.60;99.90;;;;;;5022924;28;20022;-78
2022/01/19 08:01:32;;;;;;;25.00;15.05;;;0.70;99.90;;;;;;5022589;28;20021;-78
2022/01/19 08:03:58;;;;;;;22.58;14.45;;;0.70;99.90;;;;;;5032369;28;20032;-77
2022/01/19 08:06:25;;;;;;;23.20;13.77;;;0.70;99.90;;;;;;5038025;28;20029;-78
2022/01/19 08:08:51;;;;;;;23.50;15.30;;;0.80;99.90;;;;;;5017289;28;20030;-78
2022/01/19 08:11:16;;;;;;;23.85;14.10;;;0.90;99.90;;;;;;5016546;28;20026;-78
2022/01/19 08:13:42;;;;;;;22.98;14.18;;;0.90;99.90;;;;;;5016899;28;20022;-79
2022/01/19 08:16:08;;;;;;;26.48;13.85;;;1.10;99.90;;;;;;5016789;28;20029;-78
2022/01/19 08:18:33;;;;;;;19.45;14.02;;;1.10;99.90;;;;;;5021303;28;20018;-78
2022/01/19 08:20:59;;;;;;;20.77;14.68;;;1.20;99.90;;;;;;5018267;28;20025;-79
2022/01/19 08:23:25;;;;;;;22.40;13.63;;;1.30;99.90;;;;;;5019305;28;20026;-78
2022/01/19 08:25:51;;;;;;;16.55;12.52;;;1.40;99.90;;;;;;5019000;28;20014;-77
2022/01/19 08:28:17;;;;;;;20.17;14.00;;;1.50;99.90;;;;;;5018878;28;20571;-77
2022/01/19 08:30:44;;;;;;;17.38;14.07;;;1.60;99.90;;;;;;5018037;28;20041;-78
2022/01/19 08:33:10;;;;;;;19.60;13.40;;;1.60;99.90;;;;;;5018974;28;20073;-78
2022/01/19 08:35:36;;;;;;;25.98;14.13;;;1.70;99.90;;;;;;5019629;28;20033;-77
2022/01/19 08:38:02;;;;;;;21.65;13.20;;;1.70;99.90;;;;;;5018422;28;20030;-79
2022/01/19 08:40:30;;;;;;;20.88;14.25;;;1.80;99.90;;;;;;5017018;28;20046;-78
2022/01/19 08:42:56;;;;;;;22.00;13.70;;;1.90;99.90;;;;;;5018127;28;20053;-78
2022/01/19 08:45:22;;;;;;;26.27;14.75;;;2.00;99.90;;;;;;5018108;28;20500;-77
2022/01/19 08:47:48;;;;;;;20.45;14.30;;;2.00;99.90;;;;;;5018508;28;20026;-77
2022/01/19 08:50:15;;;;;;;18.42;14.05;;;2.10;99.90;;;;;;5021063;28;20038;-79
2022/01/19 08:52:42;;;;;;;19.08;13.30;;;2.10;99.90;;;;;;5025425;28;20050;-78
2022/01/19 08:55:08;;;;;;;16.38;13.35;;;2.10;99.90;;;;;;5021143;28;20041;-79
2022/01/19 08:57:33;;;;;;;20.95;13.15;;;2.30;99.90;;;;;;5023193;28;20034;-78
2022/01/19 08:59:59;;;;;;;19.38;14.57;;;2.30;99.90;;;;;;5021797;28;20029;-77
2022/01/19 09:02:25;;;;;;;16.45;13.27;;;2.40;99.90;;;;;;5025076;28;20021;-78
2022/01/19 09:04:50;;;;;;;21.15;14.68;;;2.40;99.90;;;;;;5019562;28;20029;-79
2022/01/19 09:07:17;;;;;;;17.05;14.00;;;2.50;99.90;;;;;;5018536;28;20045;-78
2022/01/19 09:09:43;;;;;;;16.33;13.68;;;2.60;99.90;;;;;;5019467;28;20104;-77
2022/01/19 09:12:09;;;;;;;19.85;13.77;;;2.70;99.90;;;;;;5023781;28;20026;-77
2022/01/19 09:14:35;;;;;;;17.60;13.98;;;2.80;99.90;;;;;;5024943;28;20507;-77
2022/01/19 09:17:01;;;;;;;15.35;12.50;;;2.90;99.90;;;;;;5040970;28;20022;-78
2022/01/19 09:19:27;;;;;;;18.27;14.52;;;2.90;99.90;;;;;;5025777;28;20431;-76
2022/01/19 09:21:55;;;;;;;18.58;14.68;;;3.00;99.90;;;;;;5020597;28;20102;-77
2022/01/19 09:24:21;;;;;;;17.10;13.88;;;3.00;99.90;;;;;;5022242;28;20029;-78
2022/01/19 09:26:47;;;;;;;15.40;13.15;;;3.00;99.90;;;;;;5019702;28;20022;-78
2022/01/19 09:29:13;;;;;;;20.10;13.75;;;3.10;99.90;;;;;;5016532;28;20060;-77
2022/01/19 09:31:39;;;;;;;17.35;13.07;;;3.10;99.90;;;;;;5015740;28;20493;-78
2022/01/19 09:34:09;;;;;;;20.85;13.35;;;3.20;99.90;;;;;;5017770;28;20037;-78
2022/01/19 09:36:46;;;;;;;18.30;14.17;;;3.20;99.90;;;;;;5015536;28;20437;-78
2022/01/19 09:39:25;;;;;;;20.42;13.68;;;3.40;99.90;;;;;;5015115;28;20325;-77
2022/01/19 09:41:51;;;;;;;19.30;14.98;;;3.50;99.90;;;;;;5019197;28;20026;-78
2022/01/19 09:44:18;;;;;;;16.40;12.57;;;3.50;99.90;;;;;;5016939;28;20022;-77
2022/01/19 09:46:44;;;;;;;19.25;13.02;;;3.60;99.90;;;;;;5019195;28;20069;-78
2022/01/19 09:49:12;;;;;;;28.52;16.23;;;3.60;99.90;;;;;;5020732;28;20042;-78
2022/01/19 09:51:40;;;;;;;16.33;13.57;;;3.70;99.90;;;;;;5020019;28;20049;-78
2022/01/19 09:54:06;;;;;;;18.15;13.25;;;3.90;99.90;;;;;;5018150;28;20098;-78
2022/01/19 09:56:32;;;;;;;17.58;13.75;;;3.90;99.90;;;;;;5019248;28;20478;-78
2022/01/19 09:58:58;;;;;;;14.75;12.98;;;3.90;99.90;;;;;;5020990;28;20014;-78
2022/01/19 10:01:25;;;;;;;17.98;12.65;;;4.20;99.90;;;;;;5023056;28;20022;-78
2022/01/19 10:03:51;;;;;;;16.83;12.85;;;4.40;99.90;;;;;;5021210;28;20037;-78
2022/01/19 10:06:22;;;;;;;14.70;12.73;;;4.50;99.90;;;;;;5021172;28;20048;-78
2022/01/19 10:08:56;;;;;;;17.02;12.68;;;4.50;99.90;;;;;;5018087;28;20022;-78
2022/01/19 10:17:02;;;;;;;19.27;13.88;;;4.80;99.90;;;;;;5017436;28;20113;-77
2022/01/19 10:19:27;;;;;;;17.80;13.55;;;4.80;99.90;;;;;;5020052;28;20034;-78
2022/01/19 10:22:08;;;;;;;16.52;13.40;;;4.90;99.90;;;;;;5016899;28;20034;-78
2022/01/19 10:24:51;;;;;;;21.17;12.65;;;4.90;99.90;;;;;;5016000;28;20108;-78
2022/01/19 10:27:32;;;;;;;19.80;13.82;;;5.10;99.90;;;;;;5014710;28;20061;-79
2022/01/19 10:30:04;;;;;;;20.38;12.65;;;5.20;99.90;;;;;;5030365;28;20032;-77
2022/01/19 10:32:35;;;;;;;17.73;13.07;;;5.20;99.90;;;;;;5030529;28;20038;-78
2022/01/19 10:35:21;;;;;;;15.23;13.50;;;5.10;99.90;;;;;;5014419;28;20032;-78
2022/01/19 10:38:06;;;;;;;19.52;13.60;;;5.30;99.90;;;;;;5017982;28;20105;-77
2022/01/19 10:40:33;;;;;;;19.15;12.35;;;5.30;99.90;;;;;;5018858;28;20493;-77
2022/01/19 10:42:58;;;;;;;20.38;13.90;;;5.40;99.90;;;;;;5033367;28;20046;-77
2022/01/19 10:45:24;;;;;;;22.58;13.80;;;5.50;99.90;;;;;;5038319;28;20044;-78
2022/01/19 10:47:53;;;;;;;18.15;12.70;;;5.50;99.90;;;;;;5025237;28;20030;-78
2022/01/19 10:50:31;;;;;;;13.57;12.15;;;5.50;99.90;;;;;;5020043;28;20367;-77
2022/01/19 10:52:58;;;;;;;19.63;13.70;;;5.40;99.90;;;;;;5020943;28;20101;-78
2022/01/19 10:55:38;;;;;;;17.85;12.93;;;5.40;99.90;;;;;;5024093;28;20481;-78
2022/01/19 10:58:14;;;;;;;16.75;12.77;;;5.50;99.90;;;;;;5032410;28;20034;-79
2022/01/19 11:00:48;;;;;;;16.73;12.18;;;5.50;99.90;;;;;;5020812;28;20440;-77
2022/01/19 11:03:21;;;;;;;26.88;15.25;;;5.50;99.90;;;;;;5021489;28;20029;-78
2022/01/19 11:05:49;;;;;;;19.88;12.40;;;5.60;99.90;;;;;;5017936;28;20117;-79
2022/01/19 11:08:17;;;;;;;18.17;12.98;;;5.60;99.90;;;;;;5021196;28;20025;-77
2022/01/19 11:10:50;;;;;;;18.27;12.85;;;5.60;99.90;;;;;;5017634;28;20519;-79
2022/01/19 11:13:28;;;;;;;24.48;13.18;;;5.70;99.90;;;;;;5018516;28;20555;-78
2022/01/19 11:15:55;;;;;;;18.55;12.90;;;5.80;99.90;;;;;;5017963;28;20572;-78
2022/01/19 11:18:21;;;;;;;23.05;13.73;;;5.80;99.90;;;;;;5017981;28;20025;-77
2022/01/19 11:20:49;;;;;;;15.35;12.88;;;5.70;99.90;;;;;;5019141;28;20026;-78
2022/01/19 11:23:40;;;;;;;19.60;14.23;;;5.70;99.90;;;;;;5018800;28;20026;-79
2022/01/19 11:26:11;;;;;;;19.52;13.95;;;5.70;99.90;;;;;;5020037;28;20026;-79
2022/01/19 11:28:42;;;;;;;15.43;12.75;;;5.80;99.90;;;;;;5019717;28;20082;-78
2022/01/19 11:31:35;;;;;;;14.13;11.07;;;5.80;99.90;;;;;;5019340;28;20054;-80
2022/01/19 11:34:01;;;;;;;17.15;12.32;;;5.90;99.90;;;;;;5018632;28;20098;-78
2022/01/19 11:36:31;;;;;;;14.48;11.57;;;5.90;99.90;;;;;;5026305;28;20033;-78
2022/01/19 11:39:20;;;;;;;26.50;14.68;;;5.90;99.90;;;;;;5026471;28;20049;-78
2022/01/19 11:41:47;;;;;;;17.05;12.55;;;6.10;99.90;;;;;;5020908;28;20041;-78
2022/01/19 11:44:28;;;;;;;18.15;11.85;;;6.10;99.90;;;;;;5018618;28;20569;-78
2022/01/19 11:46:55;;;;;;;16.77;11.68;;;5.70;99.90;;;;;;5021435;28;20412;-77
2022/01/19 11:50:06;;;;;;;14.07;12.25;;;5.80;99.90;;;;;;5023540;28;20030;-78
2022/01/19 11:52:33;;;;;;;17.48;11.70;;;6.00;99.90;;;;;;4962245;28;20419;-77
2022/01/19 11:55:16;;;;;;;17.15;12.18;;;6.10;99.90;;;;;;5015317;28;20056;-78
2022/01/19 11:57:44;;;;;;;17.08;12.00;;;6.10;99.90;;;;;;5020444;28;20498;-79
2022/01/19 12:00:18;;;;;;;17.55;12.27;;;6.30;99.90;;;;;;5025439;28;20026;-77
2022/01/19 12:02:58;;;;;;;15.68;11.70;;;6.00;99.90;;;;;;5027886;28;20076;-77
2022/01/19 12:05:26;;;;;;;14.18;12.68;;;5.80;99.90;;;;;;5030354;28;20037;-78
2022/01/19 12:08:18;;;;;;;15.25;12.05;;;5.60;99.90;;;;;;5029184;28;20029;-77
2022/01/19 12:10:47;;;;;;;14.82;11.38;;;5.50;99.90;;;;;;5028781;28;20569;-76
2022/01/19 12:13:34;;;;;;;14.20;11.20;;;5.30;99.90;;;;;;5029507;28;20030;-77
2022/01/19 12:16:09;;;;;;;13.73;10.32;;;5.20;99.90;;;;;;5026055;28;20061;-78
2022/01/19 12:18:42;;;;;;;14.98;11.48;;;5.20;99.90;;;;;;5023780;28;20030;-78
2022/01/19 12:21:11;;;;;;;13.95;10.60;;;5.20;99.90;;;;;;5024059;28;20022;-79
2022/01/19 12:23:39;;;;;;;14.82;11.32;;;5.40;99.90;;;;;;5024078;28;20026;-78
2022/01/19 12:26:06;;;;;;;15.07;10.60;;;5.20;99.90;;;;;;5027415;28;20086;-77
2022/01/19 12:28:54;;;;;;;12.38;9.73;;;5.20;99.90;;;;;;5025661;28;20026;-80
2022/01/19 12:31:22;;;;;;;19.42;9.80;;;5.10;99.90;;;;;;5031184;28;20033;-78
2022/01/19 12:34:03;;;;;;;12.13;9.45;;;5.10;99.90;;;;;;5034170;28;20026;-77
2022/01/19 12:36:55;;;;;;;12.95;10.68;;;5.10;99.90;;;;;;5034229;28;20085;-77
2022/01/19 12:39:27;;;;;;;15.05;10.38;;;5.20;99.90;;;;;;5018645;28;20018;-78
2022/01/19 12:42:17;;;;;;;15.23;9.63;;;5.20;99.90;;;;;;5033213;28;20113;-78
2022/01/19 12:44:43;;;;;;;15.73;9.95;;;5.20;99.90;;;;;;5033145;28;20109;-78
2022/01/19 12:47:30;;;;;;;10.40;9.32;;;5.40;99.90;;;;;;5018450;28;20461;-78
2022/01/19 12:49:57;;;;;;;10.35;9.07;;;5.50;99.90;;;;;;5018327;28;20105;-79
2022/01/19 12:52:26;;;;;;;14.00;9.43;;;5.40;99.90;;;;;;5020583;28;20026;-79
2022/01/19 12:54:56;;;;;;;16.17;9.70;;;5.60;99.90;;;;;;5018867;28;20036;-78
2022/01/19 12:57:21;;;;;;;11.32;10.07;;;5.80;99.90;;;;;;5020008;28;20036;-80
2022/01/19 12:59:51;;;;;;;10.07;8.52;;;6.00;99.90;;;;;;5019318;28;20497;-78
2022/01/19 13:02:20;;;;;;;9.45;8.32;;;6.20;99.90;;;;;;5019939;28;20022;-78
2022/01/19 13:04:47;;;;;;;11.55;8.38;;;5.90;99.90;;;;;;5019706;28;20018;-79
2022/01/19 13:07:21;;;;;;;10.27;9.00;;;5.80;99.90;;;;;;5019921;28;20041;-78
2022/01/19 13:13:07;;;;;;;11.95;8.32;;;6.00;99.90;;;;;;5018051;28;20034;-78
2022/01/19 13:15:51;;;;;;;10.60;9.23;;;6.00;99.90;;;;;;5017058;28;20034;-78
2022/01/19 13:18:34;;;;;;;9.93;8.15;;;6.10;99.90;;;;;;5019353;28;20065;-79
2022/01/19 13:21:05;;;;;;;8.82;7.90;;;6.20;99.90;;;;;;5025236;28;20065;-79
2022/01/19 13:23:34;;;;;;;13.13;8.63;;;6.30;99.90;;;;;;5036114;28;20489;-78
2022/01/19 13:26:08;;;;;;;10.45;7.82;;;6.40;99.90;;;;;;5023900;28;20109;-78
2022/01/19 13:28:34;;;;;;;11.00;7.72;;;6.50;99.90;;;;;;5037256;28;20032;-78
2022/01/19 13:31:20;;;;;;;10.15;9.15;;;6.60;99.90;;;;;;5001568;28;20560;-77
2022/01/19 13:34:00;;;;;;;15.52;8.18;;;6.50;99.90;;;;;;5019374;28;20022;-79
2022/01/19 13:36:29;;;;;;;12.27;7.63;;;6.60;99.90;;;;;;5034811;28;20033;-78
2022/01/19 13:38:55;;;;;;;10.73;8.38;;;6.60;99.90;;;;;;5019374;28;20097;-78
2022/01/19 13:41:22;;;;;;;12.70;9.23;;;6.60;99.90;;;;;;5022233;28;20002;-78
2022/01/19 13:43:48;;;;;;;10.15;8.70;;;6.70;99.90;;;;;;5023940;28;20026;-76
2022/01/19 13:46:21;;;;;;;9.85;8.85;;;6.80;99.90;;;;;;5019096;28;20022;-78
2022/01/19 13:48:54;;;;;;;13.32;7.63;;;6.60;99.90;;;;;;5020485;28;20033;-77
2022/01/19 13:51:22;;;;;;;9.15;8.25;;;6.70;99.90;;;;;;5018825;28;20030;-78
2022/01/19 13:53:53;;;;;;;12.25;7.38;;;6.70;99.90;;;;;;5027712;28;20057;-78
2022/01/19 13:56:23;;;;;;;;;;;6.60;99.90;;;;;;5027485;28;20085;-78
2022/01/19 13:58:58;;;;;;;9.32;7.40;;;6.60;99.90;;;;;;5027108;28;20270;-79
2022/01/19 14:01:35;;;;;;;7.07;6.00;;;6.60;99.90;;;;;;5025688;28;20033;-78
2022/01/19 14:04:06;;;;;;;7.45;6.10;;;6.60;99.90;;;;;;5025854;28;20164;-77
2022/01/19 14:06:36;;;;;;;;;;;6.60;99.90;;;;;;5022587;28;20160;-77
2022/01/19 14:09:18;;;;;;;7.85;6.38;;;6.70;99.90;;;;;;5021530;28;19912;-80
2022/01/19 14:11:47;;;;;;;7.68;6.05;;;6.80;99.90;;;;;;5022237;28;20029;-78
2022/01/19 14:14:25;;;;;;;7.18;5.55;;;6.90;99.90;;;;;;5024844;28;20029;-79
2022/01/19 14:16:53;;;;;;;6.25;5.55;;;6.80;99.90;;;;;;5040892;28;20080;-78
2022/01/19 14:19:27;;;;;;;8.90;6.28;;;7.00;99.90;;;;;;5029836;28;20077;-78